Time;durP1;ratioP1;P1;durP2;ratioP2;P2;SDS_P1;SDS_P2;PMS_P1;PMS_P2;Temp;Humidity;BMP_temperature;BMP_pressure;BME280_temperature;BME280_humidity;BME280_pressure;Samples;Min_cycle;Max_cycle;Signal;HPM_P1;HPM_P2
2023/06/25 00:01:22;;;;;;;5.65;3.67;;;;;15.70;94640.00;;;;7397826;19;20624;-74
2023/06/25 00:03:59;;;;;;;4.20;3.80;;;;;15.80;94636.00;;;;7399611;19;20605;-73
2023/06/25 00:06:27;;;;;;;3.90;3.50;;;;;15.90;94634.00;;;;7398559;19;20152;-74
2023/06/25 00:08:55;;;;;;;4.38;3.50;;;;;15.90;94634.00;;;;7397459;19;20170;-76
2023/06/25 00:11:31;;;;;;;5.43;3.45;;;;;15.80;94640.00;;;;7394252;19;20493;-74
2023/06/25 00:14:01;;;;;;;6.13;3.72;;;;;15.80;94634.00;;;;7396973;19;20439;-72
2023/06/25 00:16:35;;;;;;;4.18;3.40;;;;;15.80;94629.00;;;;7397246;19;20120;-74
2023/06/25 00:19:09;;;;;;;4.35;3.95;;;;;15.90;94638.00;;;;7398595;19;20129;-75
2023/06/25 00:21:37;;;;;;;4.20;3.80;;;;;15.80;94639.00;;;;7398014;19;20502;-74
2023/06/25 00:24:11;;;;;;;3.88;3.33;;;;;15.70;94639.00;;;;7395144;19;20148;-74
2023/06/25 00:26:53;;;;;;;4.82;4.13;;;;;15.70;94632.00;;;;7393961;19;20146;-76
2023/06/25 00:29:30;;;;;;;5.90;3.88;;;;;15.50;94638.00;;;;7396209;19;20136;-76
2023/06/25 00:31:58;;;;;;;4.15;3.72;;;;;15.40;94619.00;;;;7397939;19;20168;-77
2023/06/25 00:34:41;;;;;;;8.65;4.10;;;;;15.40;94635.00;;;;7398329;19;20137;-75
2023/06/25 00:37:16;;;;;;;4.72;4.10;;;;;15.40;94626.00;;;;7399528;19;20136;-75
2023/06/25 00:39:51;;;;;;;6.18;4.10;;;;;15.30;94628.00;;;;7398778;19;20129;-75
2023/06/25 00:42:25;;;;;;;4.43;3.97;;;;;15.30;94624.00;;;;7394823;19;20154;-76
2023/06/25 00:45:00;;;;;;;4.43;3.92;;;;;15.20;94624.00;;;;7399491;19;20132;-76
2023/06/25 00:47:29;;;;;;;6.20;4.10;;;;;15.20;94619.00;;;;7397923;19;20141;-76
2023/06/25 00:50:05;;;;;;;3.88;3.47;;;;;15.30;94627.00;;;;7395645;19;20172;-74
2023/06/25 00:52:40;;;;;;;5.30;3.90;;;;;15.30;94621.00;;;;7397931;19;20133;-77
2023/06/25 00:55:14;;;;;;;4.63;3.92;;;;;15.40;94616.00;;;;7399446;19;20147;-74
2023/06/25 00:57:51;;;;;;;4.00;3.60;;;;;15.30;94612.00;;;;7397862;19;20629;-74
2023/06/25 01:00:28;;;;;;;4.93;3.70;;;;;15.20;94615.00;;;;7397669;19;20774;-72
2023/06/25 01:03:15;;;;;;;5.00;3.63;;;;;15.20;94606.00;;;;7399631;19;20163;-73
2023/06/25 01:05:55;;;;;;;4.70;3.88;;;;;15.30;94610.00;;;;7399551;19;20636;-72
2023/06/25 01:08:41;;;;;;;5.10;3.83;;;;;15.40;94600.00;;;;7399653;19;20125;-74
2023/06/25 01:11:10;;;;;;;4.15;3.75;;;;;15.30;94603.00;;;;7396573;19;20140;-72
2023/06/25 01:13:44;;;;;;;6.10;4.40;;;;;15.40;94600.00;;;;7395119;19;20162;-73
2023/06/25 01:16:19;;;;;;;4.40;3.95;;;;;15.40;94592.00;;;;7397631;19;20140;-74
2023/06/25 01:19:02;;;;;;;5.03;3.97;;;;;15.40;94595.00;;;;7399075;19;20140;-73
2023/06/25 01:21:35;;;;;;;5.68;3.95;;;;;15.20;94593.00;;;;7393604;19;20145;-74
2023/06/25 01:24:11;;;;;;;4.82;3.67;;;;;15.30;94590.00;;;;7395613;19;20612;-74
2023/06/25 01:26:40;;;;;;;5.07;4.18;;;;;15.40;94587.00;;;;7397064;19;20631;-74
2023/06/25 01:29:17;;;;;;;5.35;4.10;;;;;15.50;94585.00;;;;7396851;19;20132;-73
2023/06/25 01:31:51;;;;;;;4.97;3.90;;;;;15.40;94574.00;;;;7397811;19;20182;-72
2023/06/25 01:34:29;;;;;;;7.93;4.10;;;;;15.40;94584.00;;;;7398403;19;20147;-72
2023/06/25 01:37:06;;;;;;;4.95;3.92;;;;;15.40;94578.00;;;;7397277;19;20453;-76
2023/06/25 01:39:33;;;;;;;4.57;3.60;;;;;15.40;94577.00;;;;7395611;19;20129;-72
2023/06/25 01:42:08;;;;;;;7.00;4.20;;;;;15.40;94572.00;;;;7394123;19;20141;-74
2023/06/25 01:44:39;;;;;;;5.22;3.92;;;;;15.20;94572.00;;;;7397147;19;20600;-75
2023/06/25 01:47:15;;;;;;;5.10;3.30;;;;;15.20;94575.00;;;;7398602;19;20160;-73
2023/06/25 01:49:56;;;;;;;7.18;4.20;;;;;15.20;94570.00;;;;7396717;19;20173;-74
2023/06/25 01:52:39;;;;;;;5.43;4.35;;;;;15.30;94560.00;;;;7394662;19;20145;-74
2023/06/25 01:55:07;;;;;;;4.20;3.80;;;;;15.30;94560.00;;;;7396174;19;20627;-74
2023/06/25 01:57:41;;;;;;;5.20;3.92;;;;;15.30;94563.00;;;;7397757;19;20141;-74
2023/06/25 02:00:16;;;;;;;5.40;4.10;;;;;15.20;94551.00;;;;7394476;19;20144;-74
2023/06/25 02:02:50;;;;;;;4.28;3.88;;;;;15.10;94559.00;;;;7394548;19;20750;-75
2023/06/25 02:05:19;;;;;;;5.18;4.28;;;;;15.00;94547.00;;;;7395079;19;20144;-74
2023/06/25 02:07:58;;;;;;;5.15;4.30;;;;;14.90;94550.00;;;;7396318;19;20161;-74
2023/06/25 02:10:28;;;;;;;4.43;3.75;;;;;14.80;94538.00;;;;7395853;19;20132;-75
2023/06/25 02:13:05;;;;;;;4.68;4.05;;;;;14.90;94545.00;;;;7395212;19;20538;-73
2023/06/25 02:15:33;;;;;;;9.25;4.13;;;;;14.80;94538.00;;;;7396084;19;20600;-76
2023/06/25 02:18:07;;;;;;;4.43;3.90;;;;;14.90;94538.00;;;;7392336;19;20139;-75
2023/06/25 02:20:35;;;;;;;4.53;3.80;;;;;14.80;94534.00;;;;7395156;19;20613;-76
2023/06/25 02:23:03;;;;;;;5.50;4.20;;;;;14.90;94535.00;;;;7397163;19;20133;-75
2023/06/25 02:25:37;;;;;;;4.45;3.80;;;;;14.90;94537.00;;;;7395282;19;20139;-73
2023/06/25 02:28:05;;;;;;;5.07;3.85;;;;;14.90;94537.00;;;;7395008;19;20156;-76
2023/06/25 02:30:39;;;;;;;5.15;3.90;;;;;14.90;94545.00;;;;7394496;19;20144;-76
2023/06/25 02:33:13;;;;;;;8.23;3.90;;;;;14.70;94539.00;;;;7394080;19;20474;-76
2023/06/25 02:35:50;;;;;;;4.68;4.15;;;;;14.80;94528.00;;;;7394270;19;20499;-74
2023/06/25 02:38:17;;;;;;;4.88;4.22;;;;;14.70;94529.00;;;;7394720;19;20453;-75
2023/06/25 02:40:52;;;;;;;5.57;4.68;;;;;14.80;94528.00;;;;7391304;19;20592;-76
2023/06/25 02:43:26;;;;;;;4.53;3.80;;;;;14.70;94537.00;;;;7394859;19;20539;-77
2023/06/25 02:46:00;;;;;;;5.03;4.30;;;;;14.60;94534.00;;;;7395772;19;20133;-76
2023/06/25 02:48:28;;;;;;;5.97;4.53;;;;;14.70;94531.00;;;;7396271;19;20141;-75
2023/06/25 02:51:11;;;;;;;4.70;4.22;;;;;14.50;94544.00;;;;7391512;19;20565;-75
2023/06/25 02:53:39;;;;;;;4.75;4.25;;;;;14.50;94529.00;;;;7392428;19;20155;-76
2023/06/25 02:56:14;;;;;;;4.43;4.03;;;;;14.50;94534.00;;;;7395773;19;20438;-76
2023/06/25 02:58:49;;;;;;;6.63;4.60;;;;;14.50;94528.00;;;;7392503;19;20137;-75
2023/06/25 03:01:24;;;;;;;6.90;5.05;;;;;14.50;94532.00;;;;7392355;19;20176;-76
2023/06/25 03:03:52;;;;;;;5.45;4.85;;;;;14.40;94524.00;;;;7396196;19;20500;-76
2023/06/25 03:06:19;;;;;;;5.80;4.22;;;;;14.40;94523.00;;;;7393136;19;20125;-76
2023/06/25 03:08:54;;;;;;;5.95;4.80;;;;;14.50;94536.00;;;;7393578;19;20136;-77
2023/06/25 03:11:22;;;;;;;5.13;3.88;;;;;14.40;94531.00;;;;7395856;19;20137;-75
2023/06/25 03:13:56;;;;;;;5.22;4.15;;;;;14.30;94532.00;;;;7391168;19;20128;-75
2023/06/25 03:16:25;;;;;;;5.88;4.22;;;;;14.30;94532.00;;;;7392636;19;20184;-74
2023/06/25 03:19:01;;;;;;;5.07;4.45;;;;;14.40;94522.00;;;;7393010;19;20188;-74
2023/06/25 03:21:36;;;;;;;5.10;4.43;;;;;14.50;94524.00;;;;7395803;19;20576;-75
2023/06/25 03:24:10;;;;;;;5.47;4.35;;;;;14.50;94512.00;;;;7391743;19;20147;-75
2023/06/25 03:26:44;;;;;;;6.30;4.68;;;;;14.50;94519.00;;;;7391849;19;20220;-72
2023/06/25 03:29:12;;;;;;;5.00;4.50;;;;;14.50;94524.00;;;;7394590;19;20132;-75
2023/06/25 03:31:42;;;;;;;7.95;4.10;;;;;14.40;94524.00;;;;7394483;19;20141;-72
2023/06/25 03:34:16;;;;;;;5.15;3.72;;;;;14.40;94527.00;;;;7392021;19;20487;-72
2023/06/25 03:36:50;;;;;;;5.30;4.13;;;;;14.40;94519.00;;;;7390554;19;20612;-72
2023/06/25 03:39:18;;;;;;;4.97;4.15;;;;;14.40;94517.00;;;;7392322;19;20133;-78
2023/06/25 03:41:52;;;;;;;5.47;4.78;;;;;14.60;94518.00;;;;7393808;19;20146;-73
2023/06/25 03:44:20;;;;;;;5.45;4.63;;;;;14.60;94511.00;;;;7395359;19;20611;-73
2023/06/25 03:46:47;;;;;;;6.10;5.35;;;;;14.80;94510.00;;;;7396470;19;20539;-75
2023/06/25 03:49:22;;;;;;;5.28;4.43;;;;;14.70;94506.00;;;;7397391;19;20669;-76
2023/06/25 03:52:03;;;;;;;6.07;4.97;;;;;14.70;94511.00;;;;7400013;19;20140;-74
2023/06/25 03:54:31;;;;;;;5.50;4.68;;;;;14.70;94500.00;;;;7399095;19;20199;-74
2023/06/25 03:57:07;;;;;;;4.85;4.35;;;;;14.70;94497.00;;;;7400485;19;20132;-74
2023/06/25 03:59:41;;;;;;;7.03;4.32;;;;;14.70;94502.00;;;;7400779;19;20172;-73
2023/06/25 04:02:09;;;;;;;5.97;4.50;;;;;14.80;94508.00;;;;7398440;19;20153;-73
2023/06/25 04:04:43;;;;;;;7.22;5.25;;;;;14.80;94494.00;;;;7400826;19;20145;-75
2023/06/25 04:07:18;;;;;;;5.32;4.70;;;;;14.90;94500.00;;;;7397980;19;20140;-75
2023/06/25 04:09:52;;;;;;;6.13;4.72;;;;;14.90;94493.00;;;;7399331;19;20171;-74
2023/06/25 04:12:27;;;;;;;5.55;4.65;;;;;15.10;94494.00;;;;7399187;19;20136;-74
2023/06/25 04:14:55;;;;;;;5.10;4.30;;;;;15.20;94487.00;;;;7394578;19;20141;-74
2023/06/25 04:17:30;;;;;;;5.75;4.85;;;;;15.40;94496.00;;;;7401372;19;20120;-74
2023/06/25 04:20:05;;;;;;;5.65;4.43;;;;;15.50;94496.00;;;;7400043;19;20154;-74
2023/06/25 04:22:40;;;;;;;6.63;4.30;;;;;15.50;94500.00;;;;7396955;19;20160;-74
2023/06/25 04:25:08;;;;;;;7.13;4.50;;;;;15.50;94494.00;;;;7394968;19;20160;-75
2023/06/25 04:27:42;;;;;;;7.05;4.38;;;;;15.60;94492.00;;;;7401328;19;20162;-74
2023/06/25 04:30:11;;;;;;;5.53;4.80;;;;;15.70;94497.00;;;;7397827;19;20550;-76
2023/06/25 04:32:49;;;;;;;5.30;4.35;;;;;15.70;94500.00;;;;7400144;19;20465;-75
2023/06/25 04:35:23;;;;;;;4.72;4.22;;;;;15.60;94502.00;;;;7399344;19;20170;-75
2023/06/25 04:37:59;;;;;;;6.45;4.35;;;;;15.70;94495.00;;;;7398721;19;20132;-77
2023/06/25 04:40:27;;;;;;;5.20;4.50;;;;;15.90;94487.00;;;;7396675;19;20155;-77
2023/06/25 04:43:02;;;;;;;5.10;4.55;;;;;16.00;94490.00;;;;7399839;19;20141;-77
2023/06/25 04:45:38;;;;;;;5.65;4.80;;;;;16.20;94488.00;;;;7398218;19;20441;-75
2023/06/25 04:48:13;;;;;;;5.78;4.53;;;;;16.30;94492.00;;;;7398323;19;20162;-76
2023/06/25 04:50:47;;;;;;;5.28;4.20;;;;;16.40;94488.00;;;;7395019;19;20152;-74
2023/06/25 04:53:21;;;;;;;5.07;4.40;;;;;16.50;94483.00;;;;7395603;19;20151;-75
2023/06/25 04:55:55;;;;;;;4.40;4.00;;;;;16.70;94483.00;;;;7395756;19;20155;-77
2023/06/25 04:58:29;;;;;;;4.43;3.85;;;;;16.80;94493.00;;;;7398766;19;20144;-76
2023/06/25 05:01:04;;;;;;;4.88;4.35;;;;;17.00;94489.00;;;;7395103;19;20198;-75
2023/06/25 05:03:32;;;;;;;6.90;4.70;;;;;17.20;94497.00;;;;7396556;19;20152;-76
2023/06/25 05:06:06;;;;;;;4.78;4.25;;;;;17.40;94490.00;;;;7397664;19;20155;-75
2023/06/25 05:08:37;;;;;;;4.38;3.95;;;;;17.50;94486.00;;;;7394828;19;20609;-76
2023/06/25 05:11:16;;;;;;;4.80;3.65;;;;;17.60;94496.00;;;;7397584;19;20160;-76
2023/06/25 05:13:46;;;;;;;4.40;4.00;;;;;17.70;94488.00;;;;7396993;19;20508;-77
2023/06/25 05:16:20;;;;;;;4.13;3.70;;;;;18.00;94492.00;;;;7395521;19;20143;-75
2023/06/25 05:18:56;;;;;;;4.40;3.60;;;;;18.20;94495.00;;;;7394640;19;20157;-77
2023/06/25 05:21:30;;;;;;;5.53;3.90;;;;;18.30;94494.00;;;;7398316;19;20229;-76
2023/06/25 05:24:09;;;;;;;4.93;4.25;;;;;18.50;94491.00;;;;7397207;19;20662;-76
2023/06/25 05:26:40;;;;;;;4.47;4.07;;;;;18.60;94492.00;;;;7396125;19;20125;-77
2023/06/25 05:29:14;;;;;;;5.63;4.88;;;;;18.70;94490.00;;;;7397339;19;20500;-75
2023/06/25 05:31:48;;;;;;;5.40;4.47;;;;;18.80;94492.00;;;;7396175;19;20533;-75
2023/06/25 05:34:16;;;;;;;5.82;4.97;;;;;19.00;94499.00;;;;7393200;19;20144;-76
2023/06/25 05:36:52;;;;;;;4.40;3.97;;;;;19.10;94497.00;;;;7396892;19;20154;-74
2023/06/25 05:39:28;;;;;;;6.82;3.80;;;;;19.20;94497.00;;;;7393975;19;20152;-74
2023/06/25 05:42:03;;;;;;;4.35;3.88;;;;;19.40;94491.00;;;;7395136;19;20629;-75
2023/06/25 05:44:31;;;;;;;4.40;4.00;;;;;19.60;94494.00;;;;7394298;19;20166;-78
2023/06/25 05:47:07;;;;;;;4.82;4.32;;;;;19.60;94499.00;;;;7396592;19;20140;-77
2023/06/25 05:49:35;;;;;;;4.40;4.00;;;;;19.80;94498.00;;;;7394654;19;20168;-76
2023/06/25 05:52:17;;;;;;;4.45;4.00;;;;;20.10;94491.00;;;;7394847;19;20143;-76
2023/06/25 05:54:45;;;;;;;4.20;3.53;;;;;20.20;94486.00;;;;7394032;19;20182;-75
2023/06/25 05:57:19;;;;;;;5.10;4.00;;;;;20.50;94496.00;;;;7395390;19;20116;-78
2023/06/25 05:59:47;;;;;;;4.07;3.72;;;;;20.60;94491.00;;;;7394664;19;20208;-77
2023/06/25 06:02:21;;;;;;;5.22;3.92;;;;;20.70;94490.00;;;;7393400;19;20641;-75
2023/06/25 06:04:49;;;;;;;5.82;4.13;;;;;20.80;94497.00;;;;7394220;19;20133;-76
2023/06/25 06:07:23;;;;;;;3.97;3.58;;;;;21.20;94495.00;;;;7395283;19;20472;-77
2023/06/25 06:09:51;;;;;;;5.03;4.35;;;;;21.90;94493.00;;;;7394120;19;20125;-76
2023/06/25 06:12:26;;;;;;;5.00;4.50;;;;;22.50;94496.00;;;;7392338;19;20548;-78
2023/06/25 06:14:55;;;;;;;4.38;3.97;;;;;23.20;94498.00;;;;7391935;19;20117;-77
2023/06/25 06:17:31;;;;;;;5.65;4.32;;;;;23.60;94487.00;;;;7395254;19;20156;-77
2023/06/25 06:19:59;;;;;;;3.95;3.58;;;;;23.30;94495.00;;;;7394987;19;20246;-76
2023/06/25 06:22:36;;;;;;;5.72;4.03;;;;;23.30;94492.00;;;;7396545;19;20263;-77
2023/06/25 06:25:12;;;;;;;4.57;4.18;;;;;23.50;94499.00;;;;7394467;19;20145;-76
2023/06/25 06:27:39;;;;;;;4.80;4.18;;;;;24.00;94498.00;;;;7393045;19;20601;-77
2023/06/25 06:30:16;;;;;;;6.38;3.90;;;;;24.20;94502.00;;;;7394889;19;20129;-78
2023/06/25 06:32:51;;;;;;;3.95;3.55;;;;;24.70;94493.00;;;;7397555;19;20586;-78
2023/06/25 06:35:25;;;;;;;4.03;3.58;;;;;24.40;94497.00;;;;7392307;19;20141;-76
2023/06/25 06:37:59;;;;;;;4.18;3.80;;;;;25.30;94502.00;;;;7393039;19;20152;-77
2023/06/25 06:40:33;;;;;;;5.03;3.95;;;;;25.10;94510.00;;;;7391441;19;20744;-77
2023/06/25 06:43:00;;;;;;;4.60;3.88;;;;;24.70;94510.00;;;;7394992;19;20140;-76
2023/06/25 06:45:37;;;;;;;4.13;3.80;;;;;24.50;94502.00;;;;7391872;19;20157;-76
2023/06/25 06:48:11;;;;;;;4.07;3.67;;;;;24.20;94511.00;;;;7393080;19;20196;-76
2023/06/25 06:50:51;;;;;;;5.65;3.70;;;;;23.80;94511.00;;;;7391915;19;20517;-73
2023/06/25 06:53:32;;;;;;;4.30;3.90;;;;;23.70;94511.00;;;;7391867;19;20149;-73
2023/06/25 06:56:00;;;;;;;4.13;3.72;;;;;23.50;94512.00;;;;7393283;19;20129;-74
2023/06/25 06:58:34;;;;;;;5.47;4.05;;;;;23.20;94510.00;;;;7393687;19;20174;-73
2023/06/25 07:01:02;;;;;;;4.13;3.65;;;;;23.10;94510.00;;;;7390015;19;20168;-73
2023/06/25 07:03:30;;;;;;;4.30;3.90;;;;;22.80;94509.00;;;;7394041;19;20136;-73
2023/06/25 07:06:04;;;;;;;6.70;3.85;;;;;23.00;94509.00;;;;7390975;19;20157;-72
2023/06/25 07:08:31;;;;;;;4.32;3.92;;;;;23.00;94509.00;;;;7392015;19;20589;-74
2023/06/25 07:11:06;;;;;;;5.40;3.83;;;;;23.00;94513.00;;;;7391785;19;20158;-76
2023/06/25 07:13:33;;;;;;;4.05;3.67;;;;;23.00;94509.00;;;;7394857;19;20133;-73
2023/06/25 07:16:08;;;;;;;7.30;3.70;;;;;23.00;94516.00;;;;7389406;19;20211;-74
2023/06/25 07:18:37;;;;;;;4.03;3.55;;;;;23.10;94510.00;;;;7392588;19;20616;-74
2023/06/25 07:21:11;;;;;;;5.93;4.00;;;;;23.20;94517.00;;;;7400639;19;20144;-74
2023/06/25 07:23:39;;;;;;;4.13;3.78;;;;;23.30;94515.00;;;;7401652;19;20139;-73
2023/06/25 07:26:13;;;;;;;4.15;3.85;;;;;23.40;94517.00;;;;7400208;19;20153;-75
2023/06/25 07:28:43;;;;;;;5.47;4.30;;;;;23.50;94514.00;;;;7401733;19;20147;-72
2023/06/25 07:31:17;;;;;;;4.43;3.90;;;;;23.50;94507.00;;;;7396280;19;20156;-73
2023/06/25 07:33:52;;;;;;;6.20;4.03;;;;;23.50;94504.00;;;;7394577;19;20216;-74
2023/06/25 07:36:20;;;;;;;4.45;4.05;;;;;23.80;94499.00;;;;7399177;19;20220;-78
2023/06/25 07:38:47;;;;;;;4.60;4.13;;;;;23.90;94505.00;;;;7388397;19;20212;-74
2023/06/25 07:41:22;;;;;;;4.45;4.03;;;;;24.40;94502.00;;;;7387540;19;20132;-73
2023/06/25 07:43:49;;;;;;;4.53;4.05;;;;;24.50;94500.00;;;;7395336;19;20131;-73
2023/06/25 07:46:26;;;;;;;4.72;3.80;;;;;24.50;94507.00;;;;7394350;19;20148;-74
2023/06/25 07:49:01;;;;;;;4.65;4.07;;;;;24.70;94508.00;;;;7391528;19;20739;-74
2023/06/25 07:51:35;;;;;;;4.25;3.85;;;;;24.60;94507.00;;;;7393401;19;20159;-75
2023/06/25 07:54:10;;;;;;;7.85;3.90;;;;;24.60;94501.00;;;;7393624;19;20145;-77
2023/06/25 07:56:39;;;;;;;4.15;3.30;;;;;24.80;94516.00;;;;7396659;19;20152;-74
2023/06/25 07:59:15;;;;;;;4.05;3.65;;;;;24.60;94517.00;;;;7390903;19;20149;-74
2023/06/25 08:01:44;;;;;;;4.50;3.70;;;;;24.70;94512.00;;;;7392871;19;20494;-76
2023/06/25 08:04:19;;;;;;;4.13;3.70;;;;;24.50;94501.00;;;;7391732;19;20634;-78
2023/06/25 08:06:47;;;;;;;4.55;4.13;;;;;24.70;94499.00;;;;7391850;19;20133;-78
2023/06/25 08:09:22;;;;;;;4.88;4.00;;;;;24.90;94490.00;;;;7389062;19;20591;-78
2023/06/25 08:11:49;;;;;;;4.65;4.20;;;;;25.00;94496.00;;;;7393279;19;20153;-78
2023/06/25 08:14:24;;;;;;;5.35;3.97;;;;;25.10;94497.00;;;;7393127;19;20128;-78
2023/06/25 08:16:52;;;;;;;4.25;3.33;;;;;25.00;94497.00;;;;7393871;19;20162;-77
2023/06/25 08:19:27;;;;;;;4.63;4.20;;;;;25.20;94499.00;;;;7393702;19;20609;-77
2023/06/25 08:21:55;;;;;;;5.43;4.43;;;;;25.40;94495.00;;;;7395507;19;20240;-77
2023/06/25 08:24:29;;;;;;;4.40;4.00;;;;;25.40;94497.00;;;;7392293;19;20129;-78
2023/06/25 08:27:05;;;;;;;5.90;3.88;;;;;25.60;94495.00;;;;7393679;19;20132;-77
2023/06/25 08:29:41;;;;;;;5.68;4.05;;;;;26.10;94495.00;;;;7396850;19;20219;-79
2023/06/25 08:32:16;;;;;;;8.00;3.97;;;;;25.80;94504.00;;;;7403627;19;20189;-76
2023/06/25 08:34:56;;;;;;;7.95;4.68;;;;;26.00;94498.00;;;;7397264;19;20641;-78
2023/06/25 08:37:29;;;;;;;5.07;4.32;;;;;26.10;94498.00;;;;7395254;19;20144;-75
2023/06/25 08:39:57;;;;;;;4.47;4.00;;;;;25.90;94493.00;;;;7393636;19;20196;-76
2023/06/25 08:42:41;;;;;;;5.70;4.03;;;;;26.00;94504.00;;;;7399977;19;20626;-78
2023/06/25 08:45:19;;;;;;;4.60;4.20;;;;;25.80;94497.00;;;;7397384;19;20566;-76
2023/06/25 08:47:56;;;;;;;4.20;3.80;;;;;26.00;94494.00;;;;7398564;19;20129;-76
2023/06/25 08:50:44;;;;;;;4.85;4.35;;;;;26.20;94498.00;;;;7395651;19;20180;-76
2023/06/25 08:53:19;;;;;;;4.43;4.00;;;;;26.00;94492.00;;;;7397307;19;20154;-76
2023/06/25 08:55:58;;;;;;;4.53;4.13;;;;;26.40;94491.00;;;;7396110;19;20152;-77
2023/06/25 08:58:28;;;;;;;4.50;4.10;;;;;26.60;94500.00;;;;7395714;19;20627;-78
2023/06/25 09:01:03;;;;;;;4.90;4.03;;;;;26.80;94486.00;;;;7396109;19;20175;-77
2023/06/25 09:03:31;;;;;;;4.85;4.32;;;;;27.00;94486.00;;;;7398763;19;20244;-75
2023/06/25 09:06:02;;;;;;;4.80;4.20;;;;;26.70;94482.00;;;;7396973;19;20141;-80
2023/06/25 09:08:38;;;;;;;5.20;4.22;;;;;26.70;94489.00;;;;7395724;19;20169;-75
2023/06/25 09:11:06;;;;;;;5.03;4.13;;;;;27.20;94482.00;;;;7395306;19;20552;-78
2023/06/25 09:13:41;;;;;;;5.72;4.38;;;;;27.20;94484.00;;;;7397168;19;20175;-77
2023/06/25 09:16:10;;;;;;;5.35;4.32;;;;;27.00;94481.00;;;;7394362;19;20169;-77
2023/06/25 09:18:45;;;;;;;4.93;4.28;;;;;27.10;94485.00;;;;7398200;19;20503;-77
2023/06/25 09:21:20;;;;;;;5.82;4.82;;;;;27.00;94475.00;;;;7395498;19;20144;-78
2023/06/25 09:23:54;;;;;;;5.80;4.03;;;;;27.30;94478.00;;;;7398305;19;20163;-78
2023/06/25 09:26:28;;;;;;;5.30;4.53;;;;;27.80;94477.00;;;;7398614;19;20138;-78
2023/06/25 09:28:59;;;;;;;4.57;4.18;;;;;27.40;94464.00;;;;7397205;19;20147;-77
2023/06/25 09:31:35;;;;;;;4.80;4.32;;;;;28.10;94463.00;;;;7395585;19;20149;-77
2023/06/25 09:34:06;;;;;;;7.22;5.22;;;;;27.70;94475.00;;;;7397738;19;20125;-79
2023/06/25 09:36:40;;;;;;;6.22;4.55;;;;;27.80;94471.00;;;;7397922;19;20606;-78
2023/06/25 09:39:09;;;;;;;5.07;4.30;;;;;28.40;94467.00;;;;7398292;19;20609;-80
2023/06/25 09:41:46;;;;;;;4.93;4.43;;;;;28.50;94468.00;;;;7394234;19;20137;-81
2023/06/25 09:44:23;;;;;;;4.90;4.50;;;;;28.60;94462.00;;;;7395428;19;20128;-81
2023/06/25 09:47:03;;;;;;;4.93;4.40;;;;;29.20;94465.00;;;;7394257;19;20140;-77
2023/06/25 09:49:38;;;;;;;5.60;4.53;;;;;29.00;94455.00;;;;7398637;19;20159;-78
2023/06/25 09:52:22;;;;;;;5.35;4.85;;;;;29.10;94461.00;;;;7396937;19;20136;-78
2023/06/25 09:54:52;;;;;;;5.22;4.40;;;;;29.00;94459.00;;;;7397611;19;20505;-77
2023/06/25 09:57:28;;;;;;;5.30;4.60;;;;;28.90;94451.00;;;;7398049;19;20194;-81
2023/06/25 10:00:04;;;;;;;4.80;4.38;;;;;29.70;94445.00;;;;7396791;19;20148;-76
2023/06/25 10:02:39;;;;;;;4.57;4.18;;;;;29.30;94444.00;;;;7396505;19;20167;-79
2023/06/25 10:05:10;;;;;;;5.78;4.15;;;;;29.90;94447.00;;;;7396719;19;20622;-78
2023/06/25 10:07:46;;;;;;;5.82;3.70;;;;;29.20;94441.00;;;;7393157;19;20545;-78
2023/06/25 10:10:28;;;;;;;7.28;4.82;;;;;29.90;94443.00;;;;7395885;19;20144;-74
2023/06/25 10:13:04;;;;;;;5.35;4.85;;;;;29.80;94441.00;;;;7396561;19;20149;-78
2023/06/25 10:15:39;;;;;;;5.95;4.68;;;;;30.40;94436.00;;;;7392593;19;20124;-78
2023/06/25 10:18:07;;;;;;;8.85;4.75;;;;;30.00;94440.00;;;;7397677;19;20489;-80
2023/06/25 10:20:44;;;;;;;4.57;4.18;;;;;29.90;94439.00;;;;7394819;19;20230;-74
2023/06/25 10:23:19;;;;;;;4.75;4.30;;;;;29.80;94443.00;;;;7394934;19;20184;-79
2023/06/25 10:26:01;;;;;;;6.60;4.32;;;;;29.50;94440.00;;;;7394525;19;20135;-79
2023/06/25 10:28:35;;;;;;;5.22;4.60;;;;;29.80;94447.00;;;;7394251;19;20166;-78
2023/06/25 10:31:16;;;;;;;5.30;4.80;;;;;29.50;94432.00;;;;7392182;19;20141;-78
2023/06/25 10:34:01;;;;;;;6.50;4.50;;;;;29.60;94434.00;;;;7391706;19;20155;-75
2023/06/25 10:36:28;;;;;;;5.88;4.38;;;;;29.70;94432.00;;;;7392773;19;20148;-76
2023/06/25 10:39:03;;;;;;;5.20;4.70;;;;;29.80;94434.00;;;;7395028;19;20491;-77
2023/06/25 10:41:45;;;;;;;5.10;4.60;;;;;29.70;94424.00;;;;7389577;19;20148;-76
2023/06/25 10:44:27;;;;;;;5.20;4.30;;;;;30.40;94427.00;;;;7392179;19;20160;-77
2023/06/25 10:47:06;;;;;;;4.95;4.50;;;;;30.30;94439.00;;;;7395196;19;20228;-78
2023/06/25 10:49:40;;;;;;;5.35;4.30;;;;;30.20;94425.00;;;;7395000;19;20600;-81
2023/06/25 10:52:20;;;;;;;5.03;4.53;;;;;30.00;94428.00;;;;7391058;19;20587;-75
2023/06/25 10:55:06;;;;;;;5.25;4.75;;;;;30.30;94437.00;;;;7394894;19;20144;-77
2023/06/25 10:57:34;;;;;;;5.93;4.43;;;;;30.10;94421.00;;;;7392652;19;20166;-76
2023/06/25 11:00:12;;;;;;;7.07;4.57;;;;;29.90;94438.00;;;;7394217;19;20145;-76
2023/06/25 11:02:40;;;;;;;5.70;4.63;;;;;29.80;94434.00;;;;7389084;19;20159;-77
2023/06/25 11:05:22;;;;;;;5.20;4.55;;;;;30.00;94419.00;;;;7393052;19;20131;-77
2023/06/25 11:07:56;;;;;;;7.28;4.82;;;;;30.20;94420.00;;;;7395873;19;20151;-77
2023/06/25 11:10:32;;;;;;;5.22;4.65;;;;;30.20;94424.00;;;;7393457;19;20598;-74
2023/06/25 11:13:02;;;;;;;5.38;4.88;;;;;30.40;94423.00;;;;7392061;19;20650;-75
2023/06/25 11:15:40;;;;;;;5.35;4.85;;;;;30.00;94402.00;;;;7392448;19;20499;-76
2023/06/25 11:18:15;;;;;;;6.07;4.70;;;;;30.80;94413.00;;;;7393182;19;20148;-77
2023/06/25 11:20:53;;;;;;;5.72;5.13;;;;;31.40;94414.00;;;;7391352;19;20154;-78
2023/06/25 11:23:28;;;;;;;5.47;4.97;;;;;31.60;94408.00;;;;7395096;19;20132;-76
2023/06/25 11:26:06;;;;;;;5.88;5.05;;;;;31.80;94409.00;;;;7392260;19;20581;-74
2023/06/25 11:28:37;;;;;;;5.30;4.88;;;;;32.20;94406.00;;;;7392203;19;20158;-78
2023/06/25 11:31:12;;;;;;;6.57;5.28;;;;;32.40;94414.00;;;;7394240;19;20693;-82
2023/06/25 11:33:54;;;;;;;5.93;5.43;;;;;32.10;94401.00;;;;7394713;19;20632;-77
2023/06/25 11:36:23;;;;;;;5.75;5.22;;;;;31.80;94405.00;;;;7391073;19;20507;-76
2023/06/25 11:38:58;;;;;;;5.93;5.32;;;;;32.00;94394.00;;;;7392038;19;20128;-77
2023/06/25 11:41:32;;;;;;;7.90;5.47;;;;;32.40;94400.00;;;;7391369;19;20148;-73
2023/06/25 11:44:17;;;;;;;5.68;5.18;;;;;32.90;94396.00;;;;7390983;19;20139;-77
2023/06/25 11:46:50;;;;;;;6.68;5.07;;;;;32.80;94399.00;;;;7391325;19;20140;-78
2023/06/25 11:49:25;;;;;;;6.40;5.80;;;;;32.50;94396.00;;;;7392887;19;20461;-78
2023/06/25 11:52:06;;;;;;;7.43;5.63;;;;;32.40;94395.00;;;;7392011;19;20616;-77
2023/06/25 11:54:41;;;;;;;6.35;5.75;;;;;32.30;94385.00;;;;7392722;19;20454;-81
2023/06/25 11:57:18;;;;;;;5.82;5.22;;;;;32.00;94390.00;;;;7394096;19;20507;-82
2023/06/25 11:59:52;;;;;;;6.00;5.40;;;;;32.00;94383.00;;;;7394939;19;20223;-79
2023/06/25 12:02:26;;;;;;;6.03;5.53;;;;;32.30;94385.00;;;;7390936;19;20210;-77
2023/06/25 12:05:07;;;;;;;8.43;5.38;;;;;33.50;94382.00;;;;7389482;19;20132;-81
2023/06/25 12:07:41;;;;;;;6.50;5.90;;;;;33.80;94385.00;;;;7393642;19;20147;-79
2023/06/25 12:10:15;;;;;;;6.20;5.65;;;;;33.90;94382.00;;;;7396309;19;20128;-79
2023/06/25 12:12:44;;;;;;;7.05;5.55;;;;;34.00;94363.00;;;;7397821;19;20552;-78
2023/06/25 12:15:19;;;;;;;6.25;5.40;;;;;34.10;94377.00;;;;7398995;19;20627;-76
2023/06/25 12:17:53;;;;;;;5.35;4.90;;;;;33.80;94380.00;;;;7400296;19;20463;-80
2023/06/25 12:20:21;;;;;;;7.45;5.65;;;;;34.00;94387.00;;;;7397313;19;20148;-82
2023/06/25 12:22:55;;;;;;;5.95;5.45;;;;;33.20;94380.00;;;;7400018;19;20165;-78
2023/06/25 12:25:24;;;;;;;7.75;5.53;;;;;34.00;94381.00;;;;7399815;19;20132;-82
2023/06/25 12:27:54;;;;;;;6.57;5.97;;;;;32.80;94374.00;;;;7398159;19;20135;-80
2023/06/25 12:30:28;;;;;;;5.90;5.32;;;;;33.20;94370.00;;;;7398235;19;20151;-78
2023/06/25 12:33:02;;;;;;;5.90;5.22;;;;;33.50;94369.00;;;;7399680;19;20128;-79
2023/06/25 12:35:38;;;;;;;6.43;5.88;;;;;33.80;94368.00;;;;7397097;19;20496;-78
2023/06/25 12:38:12;;;;;;;5.45;5.05;;;;;34.20;94366.00;;;;7400013;19;20148;-79
2023/06/25 12:40:47;;;;;;;6.25;5.60;;;;;34.30;94362.00;;;;7390878;19;20192;-80
2023/06/25 12:43:15;;;;;;;6.47;5.88;;;;;33.30;94369.00;;;;7397690;19;20154;-83
2023/06/25 12:45:49;;;;;;;5.82;5.32;;;;;32.90;94362.00;;;;7396648;19;20136;-82
2023/06/25 12:48:23;;;;;;;6.68;6.07;;;;;33.30;94369.00;;;;7400656;19;20645;-82
2023/06/25 12:50:55;;;;;;;8.35;5.45;;;;;33.70;94360.00;;;;7393935;19;20657;-78